sensor_id;sensor_type;location;lat;lon;timestamp;P1;durP1;ratioP1;P2;durP2;ratioP2
2934;SDS011;2462;51.456;7.248;2023-11-19T00:00:44;1.00;;;0.80;;
2934;SDS011;2462;51.456;7.248;2023-11-19T00:03:10;1.00;;;0.87;;
2934;SDS011;2462;51.456;7.248;2023-11-19T00:05:35;1.37;;;0.87;;
2934;SDS011;2462;51.456;7.248;2023-11-19T00:08:03;1.20;;;1.10;;
2934;SDS011;2462;51.456;7.248;2023-11-19T00:10:29;1.53;;;0.77;;
2934;SDS011;2462;51.456;7.248;2023-11-19T00:12:55;1.00;;;0.90;;
2934;SDS011;2462;51.456;7.248;2023-11-19T00:15:22;1.10;;;1.00;;
2934;SDS011;2462;51.456;7.248;2023-11-19T00:17:49;1.10;;;0.90;;
2934;SDS011;2462;51.456;7.248;2023-11-19T00:20:16;1.30;;;1.07;;
2934;SDS011;2462;51.456;7.248;2023-11-19T00:22:42;1.10;;;0.80;;
2934;SDS011;2462;51.456;7.248;2023-11-19T00:25:11;1.00;;;0.80;;
2934;SDS011;2462;51.456;7.248;2023-11-19T00:27:37;1.27;;;0.90;;
2934;SDS011;2462;51.456;7.248;2023-11-19T00:30:04;1.57;;;0.90;;
2934;SDS011;2462;51.456;7.248;2023-11-19T00:32:30;2.03;;;0.90;;
2934;SDS011;2462;51.456;7.248;2023-11-19T00:34:56;1.30;;;0.90;;
2934;SDS011;2462;51.456;7.248;2023-11-19T00:37:22;2.23;;;1.20;;
2934;SDS011;2462;51.456;7.248;2023-11-19T00:39:48;1.00;;;0.80;;
2934;SDS011;2462;51.456;7.248;2023-11-19T00:42:17;1.20;;;0.90;;
2934;SDS011;2462;51.456;7.248;2023-11-19T00:44:42;1.10;;;0.80;;
2934;SDS011;2462;51.456;7.248;2023-11-19T00:47:08;1.00;;;0.80;;
2934;SDS011;2462;51.456;7.248;2023-11-19T00:49:34;1.27;;;1.00;;
2934;SDS011;2462;51.456;7.248;2023-11-19T00:52:00;1.03;;;0.80;;
2934;SDS011;2462;51.456;7.248;2023-11-19T00:54:27;1.00;;;0.80;;
2934;SDS011;2462;51.456;7.248;2023-11-19T00:56:53;1.27;;;1.17;;
2934;SDS011;2462;51.456;7.248;2023-11-19T00:59:20;1.37;;;1.07;;
2934;SDS011;2462;51.456;7.248;2023-11-19T01:01:46;1.30;;;1.00;;
2934;SDS011;2462;51.456;7.248;2023-11-19T01:04:16;1.10;;;1.00;;
2934;SDS011;2462;51.456;7.248;2023-11-19T01:06:42;1.20;;;0.97;;
2934;SDS011;2462;51.456;7.248;2023-11-19T01:09:08;1.00;;;0.90;;
2934;SDS011;2462;51.456;7.248;2023-11-19T01:11:34;1.20;;;0.93;;
2934;SDS011;2462;51.456;7.248;2023-11-19T01:14:00;1.13;;;0.93;;
2934;SDS011;2462;51.456;7.248;2023-11-19T01:16:26;1.00;;;0.90;;
2934;SDS011;2462;51.456;7.248;2023-11-19T01:18:53;1.00;;;0.90;;
2934;SDS011;2462;51.456;7.248;2023-11-19T01:21:19;1.20;;;0.80;;
2934;SDS011;2462;51.456;7.248;2023-11-19T01:23:46;1.20;;;0.93;;
2934;SDS011;2462;51.456;7.248;2023-11-19T01:26:13;1.23;;;1.13;;
2934;SDS011;2462;51.456;7.248;2023-11-19T01:28:39;1.17;;;1.00;;
2934;SDS011;2462;51.456;7.248;2023-11-19T01:31:09;1.10;;;0.80;;
2934;SDS011;2462;51.456;7.248;2023-11-19T01:33:36;1.10;;;0.70;;
2934;SDS011;2462;51.456;7.248;2023-11-19T01:36:02;1.10;;;0.80;;
2934;SDS011;2462;51.456;7.248;2023-11-19T01:38:29;1.30;;;0.90;;
2934;SDS011;2462;51.456;7.248;2023-11-19T01:40:56;1.00;;;0.87;;
2934;SDS011;2462;51.456;7.248;2023-11-19T01:43:38;1.00;;;0.83;;
2934;SDS011;2462;51.456;7.248;2023-11-19T01:46:07;1.10;;;1.00;;
2934;SDS011;2462;51.456;7.248;2023-11-19T01:48:37;1.87;;;0.80;;
2934;SDS011;2462;51.456;7.248;2023-11-19T01:51:05;4.13;;;0.90;;
2934;SDS011;2462;51.456;7.248;2023-11-19T01:53:31;1.03;;;0.80;;
2934;SDS011;2462;51.456;7.248;2023-11-19T01:55:58;1.30;;;0.90;;
2934;SDS011;2462;51.456;7.248;2023-11-19T01:58:25;1.20;;;1.10;;
2934;SDS011;2462;51.456;7.248;2023-11-19T02:00:51;1.10;;;0.90;;
2934;SDS011;2462;51.456;7.248;2023-11-19T02:03:17;0.90;;;0.80;;
2934;SDS011;2462;51.456;7.248;2023-11-19T02:05:44;1.00;;;0.90;;
2934;SDS011;2462;51.456;7.248;2023-11-19T02:08:11;0.97;;;0.80;;
2934;SDS011;2462;51.456;7.248;2023-11-19T02:10:38;1.10;;;0.90;;
2934;SDS011;2462;51.456;7.248;2023-11-19T02:13:04;0.97;;;0.83;;
2934;SDS011;2462;51.456;7.248;2023-11-19T02:15:31;2.70;;;1.20;;
2934;SDS011;2462;51.456;7.248;2023-11-19T02:17:57;1.00;;;0.80;;
2934;SDS011;2462;51.456;7.248;2023-11-19T02:20:23;1.07;;;0.93;;
2934;SDS011;2462;51.456;7.248;2023-11-19T02:22:51;1.10;;;0.90;;
2934;SDS011;2462;51.456;7.248;2023-11-19T02:25:19;1.23;;;1.13;;
2934;SDS011;2462;51.456;7.248;2023-11-19T02:30:22;1.00;;;0.80;;
2934;SDS011;2462;51.456;7.248;2023-11-19T02:32:58;1.00;;;0.90;;
2934;SDS011;2462;51.456;7.248;2023-11-19T02:35:26;3.30;;;1.07;;
2934;SDS011;2462;51.456;7.248;2023-11-19T02:37:52;1.00;;;0.80;;
2934;SDS011;2462;51.456;7.248;2023-11-19T02:40:18;1.20;;;0.87;;
2934;SDS011;2462;51.456;7.248;2023-11-19T02:42:43;0.97;;;0.80;;
2934;SDS011;2462;51.456;7.248;2023-11-19T02:45:09;2.23;;;0.87;;
2934;SDS011;2462;51.456;7.248;2023-11-19T02:47:40;1.27;;;1.17;;
2934;SDS011;2462;51.456;7.248;2023-11-19T02:50:07;1.10;;;0.80;;
2934;SDS011;2462;51.456;7.248;2023-11-19T02:52:38;1.00;;;0.80;;
2934;SDS011;2462;51.456;7.248;2023-11-19T02:55:04;1.50;;;1.10;;
2934;SDS011;2462;51.456;7.248;2023-11-19T02:57:35;1.40;;;0.90;;
2934;SDS011;2462;51.456;7.248;2023-11-19T03:00:02;1.00;;;0.83;;
2934;SDS011;2462;51.456;7.248;2023-11-19T03:02:37;1.00;;;0.87;;
2934;SDS011;2462;51.456;7.248;2023-11-19T03:05:09;1.97;;;1.10;;
2934;SDS011;2462;51.456;7.248;2023-11-19T03:07:35;1.10;;;0.80;;
2934;SDS011;2462;51.456;7.248;2023-11-19T03:10:02;1.10;;;0.90;;
2934;SDS011;2462;51.456;7.248;2023-11-19T03:12:30;2.23;;;0.87;;
2934;SDS011;2462;51.456;7.248;2023-11-19T03:14:56;1.37;;;0.80;;
2934;SDS011;2462;51.456;7.248;2023-11-19T03:17:22;1.07;;;0.87;;
2934;SDS011;2462;51.456;7.248;2023-11-19T03:19:49;1.10;;;0.83;;
2934;SDS011;2462;51.456;7.248;2023-11-19T03:22:15;1.10;;;0.90;;
2934;SDS011;2462;51.456;7.248;2023-11-19T03:24:41;1.30;;;0.80;;
2934;SDS011;2462;51.456;7.248;2023-11-19T03:27:07;1.13;;;0.80;;
2934;SDS011;2462;51.456;7.248;2023-11-19T03:29:32;1.00;;;0.80;;
2934;SDS011;2462;51.456;7.248;2023-11-19T03:31:58;1.63;;;0.80;;
2934;SDS011;2462;51.456;7.248;2023-11-19T03:34:24;1.40;;;1.03;;
2934;SDS011;2462;51.456;7.248;2023-11-19T03:36:51;1.40;;;0.97;;
2934;SDS011;2462;51.456;7.248;2023-11-19T03:39:17;1.73;;;0.90;;
2934;SDS011;2462;51.456;7.248;2023-11-19T03:41:45;1.30;;;0.90;;
2934;SDS011;2462;51.456;7.248;2023-11-19T03:44:12;1.00;;;0.90;;
2934;SDS011;2462;51.456;7.248;2023-11-19T03:46:37;1.00;;;0.83;;
2934;SDS011;2462;51.456;7.248;2023-11-19T03:49:03;1.20;;;0.97;;
2934;SDS011;2462;51.456;7.248;2023-11-19T03:51:32;1.37;;;1.10;;
2934;SDS011;2462;51.456;7.248;2023-11-19T03:53:59;1.20;;;0.80;;
2934;SDS011;2462;51.456;7.248;2023-11-19T03:56:25;1.10;;;0.90;;
2934;SDS011;2462;51.456;7.248;2023-11-19T03:58:52;1.50;;;1.00;;
2934;SDS011;2462;51.456;7.248;2023-11-19T04:01:18;1.10;;;0.90;;
2934;SDS011;2462;51.456;7.248;2023-11-19T04:03:45;1.80;;;1.10;;
2934;SDS011;2462;51.456;7.248;2023-11-19T04:06:11;1.10;;;0.90;;
2934;SDS011;2462;51.456;7.248;2023-11-19T04:08:39;1.20;;;0.93;;
2934;SDS011;2462;51.456;7.248;2023-11-19T04:11:05;1.03;;;0.80;;
2934;SDS011;2462;51.456;7.248;2023-11-19T04:13:31;1.80;;;1.00;;
2934;SDS011;2462;51.456;7.248;2023-11-19T04:15:58;1.50;;;0.93;;
2934;SDS011;2462;51.456;7.248;2023-11-19T04:18:24;1.30;;;1.03;;
2934;SDS011;2462;51.456;7.248;2023-11-19T04:20:50;1.20;;;1.10;;
2934;SDS011;2462;51.456;7.248;2023-11-19T04:23:16;1.10;;;0.90;;
2934;SDS011;2462;51.456;7.248;2023-11-19T04:25:42;1.27;;;0.90;;
2934;SDS011;2462;51.456;7.248;2023-11-19T04:28:08;1.13;;;0.90;;
2934;SDS011;2462;51.456;7.248;2023-11-19T04:30:34;2.70;;;1.23;;
2934;SDS011;2462;51.456;7.248;2023-11-19T04:33:00;1.20;;;0.80;;
2934;SDS011;2462;51.456;7.248;2023-11-19T04:35:26;1.30;;;1.00;;
2934;SDS011;2462;51.456;7.248;2023-11-19T04:37:52;1.00;;;0.87;;
2934;SDS011;2462;51.456;7.248;2023-11-19T04:40:18;1.83;;;1.00;;
2934;SDS011;2462;51.456;7.248;2023-11-19T04:42:44;1.60;;;0.93;;
2934;SDS011;2462;51.456;7.248;2023-11-19T04:45:10;1.27;;;1.10;;
2934;SDS011;2462;51.456;7.248;2023-11-19T04:47:36;1.43;;;1.10;;
2934;SDS011;2462;51.456;7.248;2023-11-19T04:50:02;1.53;;;0.90;;
2934;SDS011;2462;51.456;7.248;2023-11-19T04:52:29;1.50;;;1.03;;
2934;SDS011;2462;51.456;7.248;2023-11-19T04:54:55;1.17;;;0.97;;
2934;SDS011;2462;51.456;7.248;2023-11-19T04:57:20;2.10;;;1.00;;
2934;SDS011;2462;51.456;7.248;2023-11-19T04:59:46;1.37;;;1.13;;
2934;SDS011;2462;51.456;7.248;2023-11-19T05:02:12;2.13;;;1.03;;
2934;SDS011;2462;51.456;7.248;2023-11-19T05:04:43;2.77;;;1.17;;
2934;SDS011;2462;51.456;7.248;2023-11-19T05:07:11;2.40;;;1.27;;
2934;SDS011;2462;51.456;7.248;2023-11-19T05:09:37;1.87;;;1.10;;
2934;SDS011;2462;51.456;7.248;2023-11-19T05:12:03;1.10;;;0.80;;
2934;SDS011;2462;51.456;7.248;2023-11-19T05:14:29;1.73;;;1.37;;
2934;SDS011;2462;51.456;7.248;2023-11-19T05:16:56;2.00;;;1.00;;
2934;SDS011;2462;51.456;7.248;2023-11-19T05:19:22;1.90;;;1.07;;
2934;SDS011;2462;51.456;7.248;2023-11-19T05:21:48;1.73;;;1.03;;
2934;SDS011;2462;51.456;7.248;2023-11-19T05:24:17;2.37;;;1.27;;
2934;SDS011;2462;51.456;7.248;2023-11-19T05:26:43;2.80;;;1.00;;
2934;SDS011;2462;51.456;7.248;2023-11-19T05:29:09;2.60;;;1.10;;
2934;SDS011;2462;51.456;7.248;2023-11-19T05:31:34;1.70;;;1.30;;
2934;SDS011;2462;51.456;7.248;2023-11-19T05:34:00;2.00;;;0.83;;
2934;SDS011;2462;51.456;7.248;2023-11-19T05:36:26;2.13;;;0.93;;
2934;SDS011;2462;51.456;7.248;2023-11-19T05:38:53;1.33;;;1.10;;
2934;SDS011;2462;51.456;7.248;2023-11-19T05:41:20;2.53;;;1.40;;
2934;SDS011;2462;51.456;7.248;2023-11-19T05:43:46;2.57;;;0.90;;
2934;SDS011;2462;51.456;7.248;2023-11-19T05:46:13;1.33;;;1.20;;
2934;SDS011;2462;51.456;7.248;2023-11-19T05:48:41;2.90;;;1.00;;
2934;SDS011;2462;51.456;7.248;2023-11-19T05:51:07;2.03;;;1.00;;
2934;SDS011;2462;51.456;7.248;2023-11-19T05:53:34;3.53;;;1.27;;
2934;SDS011;2462;51.456;7.248;2023-11-19T05:56:00;5.17;;;1.57;;
2934;SDS011;2462;51.456;7.248;2023-11-19T05:58:28;2.50;;;1.30;;
2934;SDS011;2462;51.456;7.248;2023-11-19T06:00:55;4.07;;;1.93;;
2934;SDS011;2462;51.456;7.248;2023-11-19T06:03:21;3.63;;;1.57;;
2934;SDS011;2462;51.456;7.248;2023-11-19T06:05:49;3.07;;;1.37;;
2934;SDS011;2462;51.456;7.248;2023-11-19T06:08:15;1.73;;;0.90;;
2934;SDS011;2462;51.456;7.248;2023-11-19T06:10:43;1.43;;;1.33;;
2934;SDS011;2462;51.456;7.248;2023-11-19T06:13:11;1.67;;;1.20;;
2934;SDS011;2462;51.456;7.248;2023-11-19T06:15:37;1.80;;;1.10;;
2934;SDS011;2462;51.456;7.248;2023-11-19T06:18:03;2.10;;;1.33;;
2934;SDS011;2462;51.456;7.248;2023-11-19T06:20:30;4.40;;;1.60;;
2934;SDS011;2462;51.456;7.248;2023-11-19T06:22:56;3.20;;;1.40;;
2934;SDS011;2462;51.456;7.248;2023-11-19T06:25:23;3.47;;;1.40;;
2934;SDS011;2462;51.456;7.248;2023-11-19T06:27:49;1.77;;;1.20;;
2934;SDS011;2462;51.456;7.248;2023-11-19T06:30:15;2.77;;;1.40;;
2934;SDS011;2462;51.456;7.248;2023-11-19T06:32:41;4.30;;;1.47;;
2934;SDS011;2462;51.456;7.248;2023-11-19T06:35:07;3.17;;;1.40;;
2934;SDS011;2462;51.456;7.248;2023-11-19T06:37:34;3.93;;;1.60;;
2934;SDS011;2462;51.456;7.248;2023-11-19T06:40:00;3.13;;;1.23;;
2934;SDS011;2462;51.456;7.248;2023-11-19T06:42:26;4.03;;;1.50;;
2934;SDS011;2462;51.456;7.248;2023-11-19T06:44:52;5.20;;;1.30;;
2934;SDS011;2462;51.456;7.248;2023-11-19T06:47:18;2.70;;;1.50;;
2934;SDS011;2462;51.456;7.248;2023-11-19T06:49:44;1.93;;;1.33;;
2934;SDS011;2462;51.456;7.248;2023-11-19T06:52:11;1.83;;;1.33;;
2934;SDS011;2462;51.456;7.248;2023-11-19T06:54:38;3.80;;;1.60;;
2934;SDS011;2462;51.456;7.248;2023-11-19T06:57:04;1.60;;;1.30;;
2934;SDS011;2462;51.456;7.248;2023-11-19T06:59:30;5.50;;;1.90;;
2934;SDS011;2462;51.456;7.248;2023-11-19T07:01:56;2.30;;;1.43;;
2934;SDS011;2462;51.456;7.248;2023-11-19T07:04:22;3.20;;;1.40;;
2934;SDS011;2462;51.456;7.248;2023-11-19T07:06:48;3.33;;;1.43;;
2934;SDS011;2462;51.456;7.248;2023-11-19T07:09:14;1.67;;;1.20;;
2934;SDS011;2462;51.456;7.248;2023-11-19T07:11:41;3.80;;;1.40;;
2934;SDS011;2462;51.456;7.248;2023-11-19T07:14:07;1.93;;;1.33;;
2934;SDS011;2462;51.456;7.248;2023-11-19T07:16:35;3.47;;;1.70;;
2934;SDS011;2462;51.456;7.248;2023-11-19T07:19:05;1.50;;;1.03;;
2934;SDS011;2462;51.456;7.248;2023-11-19T07:21:31;3.57;;;1.30;;
2934;SDS011;2462;51.456;7.248;2023-11-19T07:24:04;4.97;;;1.40;;
2934;SDS011;2462;51.456;7.248;2023-11-19T07:26:30;2.63;;;1.50;;
2934;SDS011;2462;51.456;7.248;2023-11-19T07:28:56;2.47;;;1.40;;
2934;SDS011;2462;51.456;7.248;2023-11-19T07:31:22;4.43;;;1.60;;
2934;SDS011;2462;51.456;7.248;2023-11-19T07:33:48;2.30;;;1.33;;
2934;SDS011;2462;51.456;7.248;2023-11-19T07:36:14;4.80;;;1.60;;
2934;SDS011;2462;51.456;7.248;2023-11-19T07:38:41;6.70;;;2.20;;
2934;SDS011;2462;51.456;7.248;2023-11-19T07:41:07;3.93;;;1.30;;
2934;SDS011;2462;51.456;7.248;2023-11-19T07:43:39;4.37;;;1.80;;
2934;SDS011;2462;51.456;7.248;2023-11-19T07:46:12;2.67;;;1.50;;
2934;SDS011;2462;51.456;7.248;2023-11-19T07:48:39;2.63;;;1.23;;
2934;SDS011;2462;51.456;7.248;2023-11-19T07:51:05;2.07;;;1.23;;
2934;SDS011;2462;51.456;7.248;2023-11-19T07:53:31;2.90;;;1.37;;
2934;SDS011;2462;51.456;7.248;2023-11-19T07:56:02;5.00;;;1.47;;
2934;SDS011;2462;51.456;7.248;2023-11-19T07:58:28;4.60;;;1.60;;
2934;SDS011;2462;51.456;7.248;2023-11-19T08:00:54;3.90;;;1.30;;
2934;SDS011;2462;51.456;7.248;2023-11-19T08:03:20;1.63;;;1.17;;
2934;SDS011;2462;51.456;7.248;2023-11-19T08:05:49;3.87;;;1.43;;
2934;SDS011;2462;51.456;7.248;2023-11-19T08:08:16;3.37;;;1.50;;
2934;SDS011;2462;51.456;7.248;2023-11-19T08:10:42;2.10;;;1.20;;
2934;SDS011;2462;51.456;7.248;2023-11-19T08:13:09;2.43;;;1.20;;
2934;SDS011;2462;51.456;7.248;2023-11-19T08:15:35;4.67;;;1.50;;
2934;SDS011;2462;51.456;7.248;2023-11-19T08:18:01;5.30;;;1.67;;
2934;SDS011;2462;51.456;7.248;2023-11-19T08:20:27;3.63;;;1.40;;
2934;SDS011;2462;51.456;7.248;2023-11-19T08:22:53;2.60;;;1.60;;
2934;SDS011;2462;51.456;7.248;2023-11-19T08:25:19;2.77;;;1.50;;
2934;SDS011;2462;51.456;7.248;2023-11-19T08:27:45;5.23;;;1.63;;
2934;SDS011;2462;51.456;7.248;2023-11-19T08:30:11;2.03;;;1.30;;
2934;SDS011;2462;51.456;7.248;2023-11-19T08:32:38;3.20;;;1.47;;
2934;SDS011;2462;51.456;7.248;2023-11-19T08:35:04;4.40;;;1.67;;
2934;SDS011;2462;51.456;7.248;2023-11-19T08:37:30;3.83;;;1.60;;
2934;SDS011;2462;51.456;7.248;2023-11-19T08:39:56;3.93;;;1.80;;
2934;SDS011;2462;51.456;7.248;2023-11-19T08:42:24;2.83;;;1.60;;
2934;SDS011;2462;51.456;7.248;2023-11-19T08:44:50;2.93;;;1.60;;
2934;SDS011;2462;51.456;7.248;2023-11-19T08:47:19;4.73;;;1.20;;
2934;SDS011;2462;51.456;7.248;2023-11-19T08:49:45;5.10;;;1.93;;
2934;SDS011;2462;51.456;7.248;2023-11-19T08:52:11;4.07;;;1.60;;
2934;SDS011;2462;51.456;7.248;2023-11-19T08:54:37;3.23;;;1.37;;
2934;SDS011;2462;51.456;7.248;2023-11-19T08:57:03;4.97;;;1.47;;
2934;SDS011;2462;51.456;7.248;2023-11-19T08:59:32;3.87;;;1.57;;
2934;SDS011;2462;51.456;7.248;2023-11-19T09:01:58;8.20;;;1.97;;
2934;SDS011;2462;51.456;7.248;2023-11-19T09:04:24;5.27;;;1.80;;
2934;SDS011;2462;51.456;7.248;2023-11-19T09:06:51;5.33;;;1.80;;
2934;SDS011;2462;51.456;7.248;2023-11-19T09:09:17;4.20;;;1.80;;
2934;SDS011;2462;51.456;7.248;2023-11-19T09:11:43;6.80;;;1.67;;
2934;SDS011;2462;51.456;7.248;2023-11-19T09:14:09;7.20;;;1.60;;
2934;SDS011;2462;51.456;7.248;2023-11-19T09:16:36;4.87;;;1.73;;
2934;SDS011;2462;51.456;7.248;2023-11-19T09:19:03;4.80;;;2.00;;
2934;SDS011;2462;51.456;7.248;2023-11-19T09:21:28;4.13;;;1.87;;
2934;SDS011;2462;51.456;7.248;2023-11-19T09:23:56;7.47;;;2.10;;
2934;SDS011;2462;51.456;7.248;2023-11-19T09:26:23;6.60;;;1.73;;
2934;SDS011;2462;51.456;7.248;2023-11-19T09:28:49;3.53;;;1.80;;
2934;SDS011;2462;51.456;7.248;2023-11-19T09:31:16;9.20;;;2.07;;
2934;SDS011;2462;51.456;7.248;2023-11-19T09:33:42;7.10;;;1.80;;
2934;SDS011;2462;51.456;7.248;2023-11-19T09:36:08;3.50;;;1.97;;
2934;SDS011;2462;51.456;7.248;2023-11-19T09:38:35;7.80;;;1.90;;
2934;SDS011;2462;51.456;7.248;2023-11-19T09:41:05;8.63;;;1.60;;
2934;SDS011;2462;51.456;7.248;2023-11-19T09:43:35;3.63;;;1.30;;
2934;SDS011;2462;51.456;7.248;2023-11-19T09:46:05;6.13;;;1.90;;
2934;SDS011;2462;51.456;7.248;2023-11-19T09:48:35;4.57;;;1.83;;
2934;SDS011;2462;51.456;7.248;2023-11-19T09:51:02;4.37;;;1.70;;
2934;SDS011;2462;51.456;7.248;2023-11-19T09:53:28;3.93;;;1.80;;
2934;SDS011;2462;51.456;7.248;2023-11-19T09:55:55;2.60;;;1.47;;
2934;SDS011;2462;51.456;7.248;2023-11-19T09:58:22;4.63;;;1.60;;
2934;SDS011;2462;51.456;7.248;2023-11-19T10:00:49;5.97;;;1.80;;
2934;SDS011;2462;51.456;7.248;2023-11-19T10:03:16;3.87;;;1.90;;
2934;SDS011;2462;51.456;7.248;2023-11-19T10:05:42;4.33;;;1.90;;
2934;SDS011;2462;51.456;7.248;2023-11-19T10:08:08;4.90;;;1.50;;
2934;SDS011;2462;51.456;7.248;2023-11-19T10:10:36;7.87;;;1.90;;
2934;SDS011;2462;51.456;7.248;2023-11-19T10:13:02;4.60;;;1.33;;
2934;SDS011;2462;51.456;7.248;2023-11-19T10:15:28;3.10;;;1.33;;
2934;SDS011;2462;51.456;7.248;2023-11-19T10:17:59;5.10;;;1.37;;
2934;SDS011;2462;51.456;7.248;2023-11-19T10:20:25;4.80;;;1.67;;
2934;SDS011;2462;51.456;7.248;2023-11-19T10:22:55;8.23;;;2.20;;
2934;SDS011;2462;51.456;7.248;2023-11-19T10:25:21;5.57;;;1.70;;
2934;SDS011;2462;51.456;7.248;2023-11-19T10:27:48;5.20;;;1.90;;
2934;SDS011;2462;51.456;7.248;2023-11-19T10:30:17;3.33;;;2.00;;
2934;SDS011;2462;51.456;7.248;2023-11-19T10:32:44;3.63;;;1.87;;
2934;SDS011;2462;51.456;7.248;2023-11-19T10:35:10;9.87;;;2.83;;
2934;SDS011;2462;51.456;7.248;2023-11-19T10:37:38;5.27;;;1.60;;
2934;SDS011;2462;51.456;7.248;2023-11-19T10:40:04;4.97;;;1.50;;
2934;SDS011;2462;51.456;7.248;2023-11-19T10:42:30;3.27;;;1.20;;
2934;SDS011;2462;51.456;7.248;2023-11-19T10:44:56;2.77;;;1.60;;
2934;SDS011;2462;51.456;7.248;2023-11-19T10:47:22;4.80;;;2.03;;
2934;SDS011;2462;51.456;7.248;2023-11-19T10:49:50;4.97;;;1.80;;
2934;SDS011;2462;51.456;7.248;2023-11-19T10:52:17;4.93;;;2.07;;
2934;SDS011;2462;51.456;7.248;2023-11-19T10:54:45;6.10;;;1.70;;
2934;SDS011;2462;51.456;7.248;2023-11-19T10:57:16;5.10;;;2.30;;
2934;SDS011;2462;51.456;7.248;2023-11-19T10:59:44;3.23;;;1.77;;
2934;SDS011;2462;51.456;7.248;2023-11-19T11:02:11;6.40;;;1.67;;
2934;SDS011;2462;51.456;7.248;2023-11-19T11:04:41;5.53;;;1.67;;
2934;SDS011;2462;51.456;7.248;2023-11-19T11:07:08;4.13;;;1.70;;
2934;SDS011;2462;51.456;7.248;2023-11-19T11:09:36;4.97;;;1.63;;
2934;SDS011;2462;51.456;7.248;2023-11-19T11:12:02;3.63;;;1.40;;
2934;SDS011;2462;51.456;7.248;2023-11-19T11:14:29;3.27;;;1.70;;
2934;SDS011;2462;51.456;7.248;2023-11-19T11:16:56;3.53;;;1.67;;
2934;SDS011;2462;51.456;7.248;2023-11-19T11:19:23;6.20;;;1.80;;
2934;SDS011;2462;51.456;7.248;2023-11-19T11:21:50;4.40;;;1.63;;
2934;SDS011;2462;51.456;7.248;2023-11-19T11:24:27;4.40;;;2.00;;
2934;SDS011;2462;51.456;7.248;2023-11-19T11:29:41;2.93;;;1.30;;
2934;SDS011;2462;51.456;7.248;2023-11-19T11:34:42;2.90;;;1.60;;
2934;SDS011;2462;51.456;7.248;2023-11-19T11:37:18;9.67;;;1.90;;
2934;SDS011;2462;51.456;7.248;2023-11-19T11:39:49;3.20;;;2.17;;
2934;SDS011;2462;51.456;7.248;2023-11-19T11:50:13;8.07;;;2.33;;
2934;SDS011;2462;51.456;7.248;2023-11-19T11:55:28;8.40;;;2.30;;
2934;SDS011;2462;51.456;7.248;2023-11-19T11:57:54;11.10;;;2.60;;
2934;SDS011;2462;51.456;7.248;2023-11-19T12:00:27;8.17;;;2.20;;
2934;SDS011;2462;51.456;7.248;2023-11-19T12:02:57;11.63;;;2.80;;
2934;SDS011;2462;51.456;7.248;2023-11-19T12:05:24;10.83;;;2.53;;
2934;SDS011;2462;51.456;7.248;2023-11-19T12:07:57;11.07;;;3.00;;
2934;SDS011;2462;51.456;7.248;2023-11-19T12:10:31;10.80;;;2.67;;
2934;SDS011;2462;51.456;7.248;2023-11-19T12:12:58;11.83;;;2.60;;
2934;SDS011;2462;51.456;7.248;2023-11-19T12:15:24;12.70;;;2.57;;
2934;SDS011;2462;51.456;7.248;2023-11-19T12:17:51;9.27;;;2.50;;
2934;SDS011;2462;51.456;7.248;2023-11-19T12:20:18;14.93;;;3.00;;
2934;SDS011;2462;51.456;7.248;2023-11-19T12:22:45;12.23;;;2.27;;
2934;SDS011;2462;51.456;7.248;2023-11-19T12:25:11;7.50;;;2.30;;
2934;SDS011;2462;51.456;7.248;2023-11-19T12:27:41;6.83;;;1.83;;
2934;SDS011;2462;51.456;7.248;2023-11-19T12:30:08;7.47;;;2.40;;
2934;SDS011;2462;51.456;7.248;2023-11-19T12:32:40;9.03;;;2.13;;
2934;SDS011;2462;51.456;7.248;2023-11-19T12:35:10;6.10;;;2.13;;
2934;SDS011;2462;51.456;7.248;2023-11-19T12:37:42;5.63;;;1.80;;
2934;SDS011;2462;51.456;7.248;2023-11-19T12:40:15;9.27;;;2.90;;
2934;SDS011;2462;51.456;7.248;2023-11-19T12:42:42;9.80;;;2.10;;
2934;SDS011;2462;51.456;7.248;2023-11-19T12:45:08;11.00;;;2.17;;
2934;SDS011;2462;51.456;7.248;2023-11-19T12:47:38;9.30;;;2.33;;
2934;SDS011;2462;51.456;7.248;2023-11-19T12:50:05;8.10;;;2.17;;
2934;SDS011;2462;51.456;7.248;2023-11-19T12:52:32;11.20;;;1.90;;
2934;SDS011;2462;51.456;7.248;2023-11-19T12:54:58;10.00;;;2.20;;
2934;SDS011;2462;51.456;7.248;2023-11-19T12:57:41;10.37;;;2.43;;
2934;SDS011;2462;51.456;7.248;2023-11-19T13:00:08;7.83;;;1.73;;
2934;SDS011;2462;51.456;7.248;2023-11-19T13:07:48;5.03;;;1.73;;
2934;SDS011;2462;51.456;7.248;2023-11-19T13:10:14;6.00;;;2.30;;
2934;SDS011;2462;51.456;7.248;2023-11-19T13:12:40;7.33;;;2.10;;
2934;SDS011;2462;51.456;7.248;2023-11-19T13:15:06;5.47;;;1.93;;
2934;SDS011;2462;51.456;7.248;2023-11-19T13:17:47;7.63;;;2.10;;
2934;SDS011;2462;51.456;7.248;2023-11-19T13:20:13;6.27;;;1.77;;
2934;SDS011;2462;51.456;7.248;2023-11-19T13:22:53;13.00;;;2.53;;
2934;SDS011;2462;51.456;7.248;2023-11-19T13:25:19;6.23;;;2.00;;
2934;SDS011;2462;51.456;7.248;2023-11-19T13:27:45;9.93;;;2.17;;
2934;SDS011;2462;51.456;7.248;2023-11-19T13:30:13;8.23;;;1.80;;
2934;SDS011;2462;51.456;7.248;2023-11-19T13:32:39;6.20;;;2.05;;
2934;SDS011;2462;51.456;7.248;2023-11-19T13:35:05;6.80;;;2.13;;
2934;SDS011;2462;51.456;7.248;2023-11-19T13:37:34;6.10;;;1.97;;
2934;SDS011;2462;51.456;7.248;2023-11-19T13:40:00;6.60;;;1.70;;
2934;SDS011;2462;51.456;7.248;2023-11-19T13:42:26;7.67;;;2.77;;
2934;SDS011;2462;51.456;7.248;2023-11-19T13:44:52;6.80;;;2.10;;
2934;SDS011;2462;51.456;7.248;2023-11-19T13:47:19;11.30;;;2.20;;
2934;SDS011;2462;51.456;7.248;2023-11-19T13:49:45;5.20;;;2.00;;
2934;SDS011;2462;51.456;7.248;2023-11-19T13:52:11;4.73;;;1.60;;
2934;SDS011;2462;51.456;7.248;2023-11-19T13:54:37;5.83;;;2.07;;
2934;SDS011;2462;51.456;7.248;2023-11-19T13:57:03;5.77;;;2.33;;
2934;SDS011;2462;51.456;7.248;2023-11-19T13:59:31;6.10;;;2.27;;
2934;SDS011;2462;51.456;7.248;2023-11-19T14:02:01;7.20;;;2.20;;
2934;SDS011;2462;51.456;7.248;2023-11-19T14:04:27;8.50;;;2.87;;
2934;SDS011;2462;51.456;7.248;2023-11-19T14:06:53;7.57;;;2.47;;
2934;SDS011;2462;51.456;7.248;2023-11-19T14:09:20;9.03;;;3.10;;
2934;SDS011;2462;51.456;7.248;2023-11-19T14:11:46;8.13;;;2.40;;
2934;SDS011;2462;51.456;7.248;2023-11-19T14:14:12;5.50;;;2.60;;
2934;SDS011;2462;51.456;7.248;2023-11-19T14:16:38;5.73;;;2.40;;
2934;SDS011;2462;51.456;7.248;2023-11-19T14:19:05;4.60;;;2.60;;
2934;SDS011;2462;51.456;7.248;2023-11-19T14:21:32;8.00;;;2.20;;
2934;SDS011;2462;51.456;7.248;2023-11-19T14:23:58;9.07;;;2.63;;
2934;SDS011;2462;51.456;7.248;2023-11-19T14:26:24;4.40;;;2.10;;
2934;SDS011;2462;51.456;7.248;2023-11-19T14:28:49;4.60;;;2.30;;
2934;SDS011;2462;51.456;7.248;2023-11-19T14:31:15;6.50;;;2.60;;
2934;SDS011;2462;51.456;7.248;2023-11-19T14:33:43;7.70;;;2.43;;
2934;SDS011;2462;51.456;7.248;2023-11-19T14:36:08;14.67;;;2.73;;
2934;SDS011;2462;51.456;7.248;2023-11-19T14:38:35;3.33;;;1.73;;
2934;SDS011;2462;51.456;7.248;2023-11-19T14:41:01;7.67;;;2.10;;
2934;SDS011;2462;51.456;7.248;2023-11-19T14:43:27;9.60;;;2.87;;
2934;SDS011;2462;51.456;7.248;2023-11-19T14:45:53;6.90;;;2.23;;
2934;SDS011;2462;51.456;7.248;2023-11-19T14:48:20;18.83;;;3.17;;
2934;SDS011;2462;51.456;7.248;2023-11-19T14:50:46;12.80;;;2.83;;
2934;SDS011;2462;51.456;7.248;2023-11-19T14:53:12;12.57;;;2.60;;
2934;SDS011;2462;51.456;7.248;2023-11-19T14:55:38;17.30;;;2.70;;
2934;SDS011;2462;51.456;7.248;2023-11-19T14:58:04;19.23;;;3.27;;
2934;SDS011;2462;51.456;7.248;2023-11-19T15:00:31;17.87;;;3.03;;
2934;SDS011;2462;51.456;7.248;2023-11-19T15:02:57;15.00;;;3.13;;
2934;SDS011;2462;51.456;7.248;2023-11-19T15:05:22;21.03;;;3.43;;
2934;SDS011;2462;51.456;7.248;2023-11-19T15:07:48;23.10;;;4.23;;
2934;SDS011;2462;51.456;7.248;2023-11-19T15:10:14;31.67;;;4.67;;
2934;SDS011;2462;51.456;7.248;2023-11-19T15:12:41;24.23;;;3.97;;
2934;SDS011;2462;51.456;7.248;2023-11-19T15:15:08;28.50;;;3.70;;
2934;SDS011;2462;51.456;7.248;2023-11-19T15:17:41;29.53;;;3.73;;
2934;SDS011;2462;51.456;7.248;2023-11-19T15:20:07;26.97;;;3.40;;
2934;SDS011;2462;51.456;7.248;2023-11-19T15:22:33;31.13;;;3.43;;
2934;SDS011;2462;51.456;7.248;2023-11-19T15:25:00;24.77;;;3.77;;
2934;SDS011;2462;51.456;7.248;2023-11-19T15:27:27;28.47;;;3.90;;
2934;SDS011;2462;51.456;7.248;2023-11-19T15:29:54;19.37;;;3.33;;
2934;SDS011;2462;51.456;7.248;2023-11-19T15:32:21;24.43;;;4.07;;
2934;SDS011;2462;51.456;7.248;2023-11-19T15:34:48;31.13;;;4.53;;
2934;SDS011;2462;51.456;7.248;2023-11-19T15:37:14;14.23;;;3.40;;